Weather History for Novato, CA

Change the Weather History Date:

Tuesday, October 8, 2013

  Actual Average (KAPC) Record (KAPC)
Temperature  
Mean Temperature 58 °F 60 °F  
Max Temperature 77 °F 76 °F 90 °F (1999)
Min Temperature 39 °F 44 °F 40 °F (2010)
Degree Days  
Heating Degree Days 7    
Month to date heating degree days  
Since 1 July heating degree days  
Cooling Degree Days 0    
Month to date cooling degree days  
Year to date cooling degree days  
Growing Degree Days 8 (Base 50)    
Moisture  
Dew Point 44 °F    
Average Humidity 64    
Maximum Humidity 100    
Minimum Humidity 28    
Precipitation  
Precipitation 0.00 in - 0.39 in (1945)
Month to date precipitation  
Year to date precipitation  
Since 1 July precipitation  
Sea Level Pressure  
Sea Level Pressure 29.84 in    
Wind  
Wind Speed 2 mph (South)    
Max Wind Speed 13 mph    
Max Gust Speed -    
Visibility 10 miles    
Events Rain    
T = Trace of Precipitation, MM = Missing Value Source: NWS Daily Summary

Daily Weather History Graph

Daily Weather History Graph

Search for Another Location

Airport:

Trip Planner

Search our weather history database for the weather conditions in past years. The results will help you decide how hot, cold, wet, or windy it might be!

Date:

Astronomy

Oct. 08, 2013 Rise Set
Actual Time 7:12 AM PDT 6:42 PM PDT
Civil Twilight 6:46 AM PDT 7:08 PM PDT
Nautical Twilight 6:15 AM PDT 7:38 PM PDT
Astronomical Twilight 5:45 AM PDT 8:09 PM PDT
Moon 11:09 AM PDT (10/8) 9:27 PM PDT (10/8)
Length of Visible Light 12h 22m
Length of Day
11h 29m
Waxing Crescent, 17% of the Moon is Illuminated
Oct 8
Waxing Crescent
Oct 11
First Quarter
Oct 18
Full
Oct 26
Last Quarter
Nov 3
New

Hourly Weather History & Observations

Time (PDT) Temp. Dew Point Humidity Pressure Visibility Wind Dir Wind Speed Gust Speed Precip Events Conditions
12:15 AM 51.8 °F 42.8 °F 71% 29.90 in 10.0 mi Calm Calm - N/A   Clear
12:35 AM 50.0 °F 41.0 °F 71% 29.90 in 10.0 mi Calm Calm - N/A   Clear
12:55 AM 50.0 °F 44.6 °F 82% 29.90 in 10.0 mi Calm Calm - N/A   Clear
1:15 AM 50.0 °F 44.6 °F 82% 29.89 in 10.0 mi South 4.6 mph - N/A   Clear
1:35 AM 50.0 °F 44.6 °F 82% 29.89 in 10.0 mi Calm Calm - N/A   Clear
1:55 AM 44.6 °F 41.0 °F 87% 29.89 in 10.0 mi Calm Calm - N/A   Clear
2:15 AM 44.6 °F 41.0 °F 87% 29.90 in 10.0 mi Calm Calm - N/A   Clear
2:35 AM 44.6 °F 42.8 °F 93% 29.90 in 10.0 mi Calm Calm - N/A   Clear
2:55 AM 48.2 °F 44.6 °F 87% 29.89 in 10.0 mi Calm Calm - N/A   Clear
3:15 AM 46.4 °F 42.8 °F 87% 29.89 in 10.0 mi Calm Calm - N/A   Clear
3:35 AM 44.6 °F 41.0 °F 87% 29.89 in 10.0 mi Calm Calm - N/A   Clear
3:55 AM 46.4 °F 44.6 °F 93% 29.90 in 10.0 mi Calm Calm - N/A   Clear
4:15 AM 46.4 °F 44.6 °F 93% 29.89 in 10.0 mi Calm Calm - N/A   Clear
4:35 AM 44.6 °F 44.6 °F 100% 29.90 in 10.0 mi Calm Calm - N/A   Clear
4:55 AM 44.6 °F 42.8 °F 93% 29.90 in 10.0 mi Calm Calm - N/A   Clear
5:15 AM 44.6 °F 44.6 °F 100% 29.90 in 10.0 mi Calm Calm - N/A   Clear
5:35 AM 44.6 °F 44.6 °F 100% 29.90 in 10.0 mi Calm Calm - N/A   Clear
5:55 AM 44.6 °F 42.8 °F 93% 29.90 in 10.0 mi Calm Calm - N/A   Clear
6:15 AM 44.6 °F 44.6 °F 100% 29.90 in 10.0 mi Calm Calm - N/A   Clear
6:35 AM 41.0 °F 41.0 °F 100% 29.91 in 10.0 mi Calm Calm - N/A   Clear
6:55 AM 42.8 °F 41.0 °F 93% 29.91 in 10.0 mi Calm Calm - N/A   Clear
7:15 AM 44.6 °F 44.6 °F 100% 29.91 in 10.0 mi Calm Calm - N/A   Clear
7:35 AM 39.2 °F 37.4 °F 93% 29.91 in 10.0 mi Calm Calm - N/A   Clear
7:55 AM 44.6 °F 41.0 °F 87% 29.91 in 10.0 mi Calm Calm - N/A   Clear
8:15 AM 46.4 °F 44.6 °F 93% 29.92 in 10.0 mi Calm Calm - N/A   Clear
8:35 AM 48.2 °F 44.6 °F 87% 29.92 in 10.0 mi Calm Calm - N/A   Clear
8:55 AM 51.8 °F 46.4 °F 82% 29.92 in 9.0 mi Calm Calm - N/A   Clear
9:15 AM 53.6 °F 46.4 °F 77% 29.92 in 10.0 mi Calm Calm - N/A   Clear
9:35 AM 57.2 °F 46.4 °F 67% 29.92 in 10.0 mi Calm Calm - N/A   Clear
9:55 AM 59.0 °F 48.2 °F 67% 29.92 in 10.0 mi Calm Calm - N/A   Clear
10:15 AM 62.6 °F 46.4 °F 55% 29.92 in 10.0 mi North 6.9 mph - N/A   Clear
10:35 AM 66.2 °F 44.6 °F 46% 29.91 in 10.0 mi NNW 6.9 mph - N/A   Clear
10:55 AM 68.0 °F 44.6 °F 43% 29.91 in 10.0 mi Calm Calm - N/A   Clear
11:15 AM 68.0 °F 44.6 °F 43% 29.90 in 10.0 mi SW 3.5 mph - N/A   Clear
11:35 AM 68.0 °F 44.6 °F 43% 29.89 in 10.0 mi SSE 3.5 mph - N/A   Clear
11:55 AM 68.0 °F 44.6 °F 43% 29.89 in 10.0 mi East 3.5 mph - N/A   Clear
12:15 PM 71.6 °F 44.6 °F 38% 29.88 in 10.0 mi SSE 3.5 mph - N/A   Clear
12:35 PM 73.4 °F 46.4 °F 38% 29.87 in 10.0 mi SSE 4.6 mph - N/A   Clear
12:55 PM 73.4 °F 46.4 °F 38% 29.86 in 10.0 mi SE 4.6 mph - N/A Rain Light Rain
1:15 PM 73.4 °F 46.4 °F 38% 29.85 in 10.0 mi SE 6.9 mph - N/A Rain Light Rain
1:35 PM 73.4 °F 48.2 °F 41% 29.83 in 10.0 mi SE 9.2 mph - N/A   Clear
1:55 PM 73.4 °F 48.2 °F 41% 29.82 in 10.0 mi ESE 6.9 mph - N/A   Clear
2:15 PM 75.2 °F 46.4 °F 36% 29.80 in 10.0 mi SE 8.1 mph - N/A   Clear
2:35 PM 77.0 °F 46.4 °F 34% 29.79 in 10.0 mi SSE 6.9 mph - N/A   Clear
2:55 PM 77.0 °F 46.4 °F 34% 29.79 in 10.0 mi SE 5.8 mph - N/A   Clear
3:15 PM 75.2 °F 46.4 °F 36% 29.78 in 10.0 mi ESE 11.5 mph - N/A   Clear
3:35 PM 75.2 °F 44.6 °F 34% 29.78 in 10.0 mi SE 6.9 mph - N/A   Clear
3:55 PM 77.0 °F 41.0 °F 28% 29.78 in 10.0 mi WSW 9.2 mph - N/A   Clear
4:15 PM 75.2 °F 41.0 °F 29% 29.77 in 10.0 mi WSW 11.5 mph - N/A   Clear
4:35 PM 75.2 °F 41.0 °F 29% 29.76 in 10.0 mi WSW 11.5 mph - N/A   Clear
4:55 PM 73.4 °F 41.0 °F 31% 29.76 in 10.0 mi WSW 12.7 mph - N/A   Clear
5:15 PM 73.4 °F 39.2 °F 29% 29.75 in 10.0 mi WSW 6.9 mph - N/A   Clear
5:35 PM 71.6 °F 37.4 °F 29% 29.75 in 10.0 mi WSW 10.4 mph - N/A   Clear
5:55 PM 69.8 °F 39.2 °F 33% 29.75 in 10.0 mi WSW 3.5 mph - N/A   Clear
6:15 PM 68.0 °F 39.2 °F 35% 29.74 in 10.0 mi SSW 5.8 mph - N/A   Clear
6:35 PM 64.4 °F 42.8 °F 45% 29.74 in 10.0 mi South 10.4 mph - N/A   Clear
6:55 PM 60.8 °F 41.0 °F 48% 29.74 in 10.0 mi Calm Calm - N/A   Clear
7:15 PM 59.0 °F 41.0 °F 51% 29.74 in 10.0 mi SW 4.6 mph - N/A   Clear
7:35 PM 57.2 °F 42.8 °F 59% 29.74 in 10.0 mi South 4.6 mph - N/A   Clear
7:55 PM 53.6 °F 41.0 °F 62% 29.74 in 10.0 mi Calm Calm - N/A   Clear
8:15 PM 51.8 °F 44.6 °F 76% 29.75 in 10.0 mi ENE 3.5 mph - N/A   Clear
8:35 PM 53.6 °F 44.6 °F 72% 29.75 in 10.0 mi Calm Calm - N/A   Clear
8:55 PM 55.4 °F 44.6 °F 67% 29.75 in 10.0 mi Calm Calm - N/A   Clear
9:15 PM 53.6 °F 44.6 °F 72% 29.75 in 10.0 mi SSW 3.5 mph - N/A   Clear
9:35 PM 51.8 °F 44.6 °F 76% 29.75 in 10.0 mi SSE 3.5 mph - N/A   Clear
9:55 PM 53.6 °F 44.6 °F 72% 29.75 in 10.0 mi ENE 3.5 mph - N/A   Clear
10:15 PM 55.4 °F 44.6 °F 67% 29.74 in 10.0 mi SSW 4.6 mph - N/A   Clear
10:35 PM 57.2 °F 44.6 °F 63% 29.73 in 10.0 mi SE 3.5 mph - N/A   Clear
10:55 PM 55.4 °F 42.8 °F 63% 29.73 in 10.0 mi Calm Calm - N/A   Clear
11:15 PM 57.2 °F 42.8 °F 59% 29.72 in 10.0 mi SE 4.6 mph - N/A   Clear
11:35 PM 57.2 °F 42.8 °F 59% 29.73 in 10.0 mi Calm Calm - N/A   Clear
11:55 PM 55.4 °F 42.8 °F 63% 29.71 in 10.0 mi SSE 3.5 mph - N/A   Clear